Shorter, Alabama
Current Conditions -  °F | °C
As of 11:58 PM on Tuesday 27 Jan 2015 (Local Time) from KMXF Reporting Station
Clear Clear  
Wind Chill: 39°   Ceiling: Unl
Heat Index: 42°   Visibility: 10mi
Dew Point: 31°   Wind: 5mph
Humidity: 66%   Direction: 330°NNW
Pressure: 30.15"   Gusts: NA
Location:  32.39°N, 85.92°W
Report Text: KMXF 280558Z AUTO 33004KT 10SM CLR 05/M01 A3015 RMK AO2 SLPNO T00541006 10108 20030 401601001 52009
Loading
Personal Weather Stations






























Interactive Weather Map New forecast layout! Learn more

10-Day Weather Forecast

Advertisements
Track Severe Weather on mobile